메인 페이지
METAR-TAF:

METAR-TAF

공항 :

University of Oklahoma Westheimer Airport

Norman, 오클라호마, 미국

위도: 35-13N, 경도: 097-27W, 고도: 357m

현재 날씨관측

예보는 35분 전, 15:45시(UTC)에 발표되었습니다.
남동3kt
온도 7°C
습도 57%
기압 1023 hPa
시정: 16.1km
맑음

METAR: KOUN 161545Z 14003KT 10SM CLR 07/M01 A3022

시각: 10:20 (16:20 UTC)

예보

예보는 5 시간 0분 전, 11:20시(UTC)에 발표되었습니다.
예보 대상 시간: 16일 12시부터 17일 12시까지 (UTC)
남남동4kt
시정: 10km
고도 18000ft 상공 흐림
16일 1800시부터 (UTC)
북북서7kt
시정: 10km
고도 15000ft 상공 구름 많음

TAF: KOUN 161120Z 1612/1712 16004KT P6SM OVC180 FM161800 34007KT P6SM BKN150

4,000개 이상의 공항 관측 자료 및 예보 (METAR 및 TAF 보고).

지도상에서 검색 가능한 기상관측소가 노란 점과 빨간 점으로 표시되어 있습니다.

기상관측소 명을 보려면 표시 위로 마우스를 이동하세요.

날씨 관측과 예보를 보려면 클릭하세요.

지도 변경 : 확대하려면 엑스 표시가 있는 녹색 버튼, 축소하려면 빼기 표시가 있는 녹색 버튼, 다음 페이지의 지도를 보려면 녹색 화살표를 클릭하세요.


METAR-TAF: